Maersk Wakamatsu — 3EZG — position and weather

sailwx.info

Track history (hours):
 
Tides and Currents Weather Stations Pressure Air Temp Water Temp Dewpoint Dewpoint Depression Visibility Wind Speed Wind Dir Waves Ship Positions

Maersk Wakamatsu

Last reported at 2017-May-17 22:47 UTC. Time now 2017-May-23 12:47 UTC.
Position N 09°35' W 079°44'.

Length 172 m; draft 7.9 m.

Type: Cargo ship. MMSI: 370484000.

Date/timePositionNaut miles runAvg speedWind from/ knotsBaromVisibWave heightAir tempDewpointWater temp
2017-May-17 22:47N 09°35' W 079°44'711.6
2017-May-17 22:13N 09°31' W 079°49'211.3
2017-May-17 22:00N 09°29' W 079°51'510.8
2017-May-17 21:30N 09°25' W 079°54'3 5.1
2017-May-17 21:00N 09°22' W 079°53'0 0.0
2017-May-17 20:31N 09°22' W 079°53'0 0.0
2017-May-17 20:01N 09°22' W 079°53'0 0.0
2017-May-17 19:31N 09°22' W 079°53'0 0.0
2017-May-17 18:58N 09°22' W 079°53'0 0.0
2017-May-17 18:25N 09°22' W 079°53'0 0.0
2017-May-17 17:58N 09°22' W 079°53'0 0.0
2017-May-17 17:25N 09°22' W 079°53'0 0.0
2017-May-17 17:01N 09°22' W 079°53'0 0.0
2017-May-17 16:28N 09°22' W 079°53'0 0.0
2017-May-17 15:58N 09°22' W 079°53'0 0.0
2017-May-17 15:28N 09°22' W 079°53'0 0.0
2017-May-17 14:55N 09°22' W 079°53'0 0.0
2017-May-17 14:25N 09°22' W 079°53'0 0.0
2017-May-17 13:31N 09°22' W 079°53'0 0.0
2017-May-17 13:01N 09°22' W 079°53'0 0.0
2017-May-17 12:28N 09°22' W 079°53'0 0.0
2017-May-17 11:58N 09°22' W 079°53'0 0.0
2017-May-17 11:28N 09°22' W 079°53'0 0.0
2017-May-17 10:58N 09°22' W 079°53'0 0.0
2017-May-17 10:28N 09°22' W 079°53'0 0.0
2017-May-17 09:58N 09°22' W 079°53'0 0.0
2017-May-17 09:28N 09°22' W 079°53'0 0.0
2017-May-17 08:58N 09°22' W 079°53'0 0.0
2017-May-17 08:28N 09°22' W 079°53'0 0.0
2017-May-17 08:01N 09°22' W 079°53'0 0.0
2017-May-17 07:28N 09°22' W 079°53'0 0.0
2017-May-17 06:58N 09°22' W 079°53'0 0.0
2017-May-17 06:28N 09°22' W 079°53'0 0.0
2017-May-17 05:58N 09°22' W 079°53'0 0.0
2017-May-17 05:28N 09°22' W 079°53'0 0.0
2017-May-17 04:58N 09°22' W 079°53'0 0.0
2017-May-17 04:28N 09°22' W 079°53'0 0.0
2017-May-17 03:58N 09°22' W 079°53'0 0.0
2017-May-17 03:25N 09°22' W 079°53'0 0.0
2017-May-17 02:58N 09°22' W 079°53'0 0.0
2017-May-17 02:28N 09°22' W 079°53'0 0.0
2017-May-17 01:55N 09°22' W 079°53'0 0.0
2017-May-17 01:31N 09°22' W 079°53'0 0.0
2017-May-17 00:58N 09°22' W 079°53'0 0.3
2017-May-17 00:30N 09°22' W 079°53'1 2.8
2017-May-17 00:00N 09°23' W 079°54'4 7.4
2017-May-16 23:30N 09°27' W 079°53'1 3.0
2017-May-16 23:00N 09°28' W 079°52'1 1.1
2017-May-16 22:30N 09°28' W 079°52'0 0.9
2017-May-16 22:00N 09°28' W 079°52'1 2.2
2017-May-16 21:30N 09°28' W 079°53'3 5.9
2017-May-16 21:00N 09°31' W 079°53'  
Track history (hours):
 
Tides and Currents Weather Stations Pressure Air Temp Water Temp Dewpoint Dewpoint Depression Visibility Wind Speed Wind Dir Waves Ship Positions

Maersk Wakamatsu

Last reported at 2017-May-17 22:47 UTC. Time now 2017-May-23 12:47 UTC.
Position N 09°35' W 079°44'.

Length 172 m; draft 7.9 m.

Type: Cargo ship. MMSI: 370484000.

Date/timePositionNaut miles runAvg speedWind from/ knotsBaromVisibWave heightAir tempDewpointWater temp
2017-May-17 22:47N 09°35' W 079°44'711.6
2017-May-17 22:13N 09°31' W 079°49'211.3
2017-May-17 22:00N 09°29' W 079°51'510.8
2017-May-17 21:30N 09°25' W 079°54'3 5.1
2017-May-17 21:00N 09°22' W 079°53'0 0.0
2017-May-17 20:31N 09°22' W 079°53'0 0.0
2017-May-17 20:01N 09°22' W 079°53'0 0.0
2017-May-17 19:31N 09°22' W 079°53'0 0.0
2017-May-17 18:58N 09°22' W 079°53'0 0.0
2017-May-17 18:25N 09°22' W 079°53'0 0.0
2017-May-17 17:58N 09°22' W 079°53'0 0.0
2017-May-17 17:25N 09°22' W 079°53'0 0.0
2017-May-17 17:01N 09°22' W 079°53'0 0.0
2017-May-17 16:28N 09°22' W 079°53'0 0.0
2017-May-17 15:58N 09°22' W 079°53'0 0.0
2017-May-17 15:28N 09°22' W 079°53'0 0.0
2017-May-17 14:55N 09°22' W 079°53'0 0.0
2017-May-17 14:25N 09°22' W 079°53'0 0.0
2017-May-17 13:31N 09°22' W 079°53'0 0.0
2017-May-17 13:01N 09°22' W 079°53'0 0.0
2017-May-17 12:28N 09°22' W 079°53'0 0.0
2017-May-17 11:58N 09°22' W 079°53'0 0.0
2017-May-17 11:28N 09°22' W 079°53'0 0.0
2017-May-17 10:58N 09°22' W 079°53'0 0.0
2017-May-17 10:28N 09°22' W 079°53'0 0.0
2017-May-17 09:58N 09°22' W 079°53'0 0.0
2017-May-17 09:28N 09°22' W 079°53'0 0.0
2017-May-17 08:58N 09°22' W 079°53'0 0.0
2017-May-17 08:28N 09°22' W 079°53'0 0.0
2017-May-17 08:01N 09°22' W 079°53'0 0.0
2017-May-17 07:28N 09°22' W 079°53'0 0.0
2017-May-17 06:58N 09°22' W 079°53'0 0.0
2017-May-17 06:28N 09°22' W 079°53'0 0.0
2017-May-17 05:58N 09°22' W 079°53'0 0.0
2017-May-17 05:28N 09°22' W 079°53'0 0.0
2017-May-17 04:58N 09°22' W 079°53'0 0.0
2017-May-17 04:28N 09°22' W 079°53'0 0.0
2017-May-17 03:58N 09°22' W 079°53'0 0.0
2017-May-17 03:25N 09°22' W 079°53'0 0.0
2017-May-17 02:58N 09°22' W 079°53'0 0.0
2017-May-17 02:28N 09°22' W 079°53'0 0.0
2017-May-17 01:55N 09°22' W 079°53'0 0.0
2017-May-17 01:31N 09°22' W 079°53'0 0.0
2017-May-17 00:58N 09°22' W 079°53'0 0.3
2017-May-17 00:30N 09°22' W 079°53'1 2.8
2017-May-17 00:00N 09°23' W 079°54'4 7.4
2017-May-16 23:30N 09°27' W 079°53'1 3.0
2017-May-16 23:00N 09°28' W 079°52'1 1.1
2017-May-16 22:30N 09°28' W 079°52'0 0.9
2017-May-16 22:00N 09°28' W 079°52'1 2.2
2017-May-16 21:30N 09°28' W 079°53'3 5.9
2017-May-16 21:00N 09°31' W 079°53'  

Dump ship's entire track history